Time;durP1;ratioP1;P1;durP2;ratioP2;P2;SDS_P1;SDS_P2;PMS_P1;PMS_P2;Temp;Humidity;BMP_temperature;BMP_pressure;BME280_temperature;BME280_humidity;BME280_pressure;Samples;Min_cycle;Max_cycle;Signal;HPM_P1;HPM_P2
2021/08/05 00:00:00;;;;;;;1.73;1.30;;;;;;;16.02;92.47;100761.59;5094998;28;20451;-71
2021/08/05 00:02:27;;;;;;;2.33;1.10;;;;;;;16.04;92.45;100751.94;5094729;28;20932;-71
2021/08/05 00:04:53;;;;;;;0.80;0.80;;;;;;;16.05;92.25;100750.00;5094857;28;20464;-72
2021/08/05 00:07:19;;;;;;;1.77;1.00;;;;;;;16.03;92.41;100739.44;5094972;28;20535;-72
2021/08/05 00:09:46;;;;;;;2.23;1.60;;;;;;;15.97;92.06;100746.22;5094556;28;20929;-71
2021/08/05 00:12:15;;;;;;;0.90;0.90;;;;;;;15.93;92.21;100742.53;5094855;28;20435;-71
2021/08/05 00:14:43;;;;;;;1.30;1.10;;;;;;;15.85;92.26;100746.97;5094677;28;20483;-71
2021/08/05 00:17:11;;;;;;;1.83;1.10;;;;;;;15.72;93.06;100748.00;5094738;28;20489;-71
2021/08/05 00:19:37;;;;;;;1.23;0.80;;;;;;;15.76;93.21;100748.94;5094707;28;20441;-71
2021/08/05 00:22:04;;;;;;;1.10;0.90;;;;;;;15.81;92.65;100762.41;5094636;28;20989;-71
2021/08/05 00:24:31;;;;;;;4.23;1.17;;;;;;;15.79;91.79;100753.72;5094216;28;20468;-71
2021/08/05 00:26:58;;;;;;;1.40;1.00;;;;;;;15.70;89.88;100753.00;5094545;28;20817;-71
2021/08/05 00:29:26;;;;;;;1.20;1.00;;;;;;;15.63;89.01;100750.78;5094516;28;20444;-71
2021/08/05 00:31:52;;;;;;;1.13;1.03;;;;;;;15.55;88.52;100750.81;5093905;28;20440;-71
2021/08/05 00:34:19;;;;;;;0.70;0.70;;;;;;;15.43;88.05;100745.25;5094271;28;20492;-71
2021/08/05 00:36:45;;;;;;;1.60;1.00;;;;;;;15.35;88.36;100752.34;5094365;28;20476;-71
2021/08/05 00:39:12;;;;;;;1.83;1.20;;;;;;;15.35;88.76;100755.88;5094336;28;20838;-72
2021/08/05 00:41:38;;;;;;;1.40;1.10;;;;;;;15.32;88.76;100750.31;5094276;28;20466;-71
2021/08/05 00:44:05;;;;;;;1.63;1.20;;;;;;;15.30;89.50;100747.09;5094142;28;20467;-72
2021/08/05 00:46:33;;;;;;;1.87;1.53;;;;;;;15.22;91.50;100740.53;5094187;28;20467;-71
2021/08/05 00:49:00;;;;;;;0.70;0.70;;;;;;;15.24;91.56;100743.75;5094130;28;20447;-71
2021/08/05 00:51:26;;;;;;;1.60;1.03;;;;;;;15.28;92.38;100744.69;5094126;28;20441;-71
2021/08/05 00:53:52;;;;;;;1.00;0.90;;;;;;;15.33;92.52;100732.78;5093856;28;20484;-71
2021/08/05 00:56:19;;;;;;;1.63;1.20;;;;;;;15.32;93.08;100739.38;5093992;28;20447;-71
2021/08/05 00:58:45;;;;;;;0.70;0.70;;;;;;;15.29;93.98;100734.59;5093611;28;20459;-71
2021/08/05 01:01:16;;;;;;;1.73;1.13;;;;;;;15.34;93.61;100734.38;5093932;28;20436;-71
2021/08/05 01:03:47;;;;;;;1.43;1.23;;;;;;;15.37;93.97;100731.81;5093481;28;20945;-71
2021/08/05 01:06:27;;;;;;;1.10;1.00;;;;;;;15.31;94.20;100732.31;5093896;28;20428;-71
2021/08/05 01:09:02;;;;;;;1.13;0.87;;;;;;;15.33;94.32;100722.69;5093769;28;20436;-71
2021/08/05 01:11:32;;;;;;;1.73;1.20;;;;;;;15.27;94.56;100723.19;5093800;28;20424;-71
2021/08/05 01:14:04;;;;;;;1.37;0.90;;;;;;;15.23;94.86;100722.22;5093623;28;20879;-71
2021/08/05 01:16:34;;;;;;;1.10;0.90;;;;;;;15.15;95.44;100712.97;5093395;28;20893;-71
2021/08/05 01:19:12;;;;;;;1.10;1.00;;;;;;;15.14;95.75;100705.94;5093691;28;20456;-72
2021/08/05 01:21:49;;;;;;;1.50;0.93;;;;;;;15.18;95.52;100701.38;5093734;28;20505;-74
2021/08/05 01:24:20;;;;;;;2.20;0.83;;;;;;;15.21;92.85;100706.19;5092904;28;20484;-71
2021/08/05 01:26:59;;;;;;;1.53;1.23;;;;;;;15.18;90.86;100704.13;5093255;28;20916;-71
2021/08/05 01:29:27;;;;;;;1.83;1.07;;;;;;;15.14;90.42;100705.94;5093502;28;20424;-73
2021/08/05 01:31:54;;;;;;;0.97;0.97;;;;;;;15.13;90.20;100698.84;5093507;28;20440;-70
2021/08/05 01:34:23;;;;;;;2.33;1.20;;;;;;;15.09;90.30;100692.44;5099857;28;20510;-71
2021/08/05 01:36:50;;;;;;;1.40;0.77;;;;;;;15.08;91.33;100704.50;5093450;28;20447;-71
2021/08/05 01:39:17;;;;;;;1.00;0.80;;;;;;;15.05;92.50;100703.25;5093435;28;20443;-71
2021/08/05 01:41:46;;;;;;;1.83;1.00;;;;;;;15.06;93.54;100704.84;5093234;28;20451;-72
2021/08/05 01:44:15;;;;;;;1.43;1.10;;;;;;;15.09;94.36;100697.91;5092317;28;20460;-72
2021/08/05 01:46:43;;;;;;;1.07;0.80;;;;;;;15.12;94.86;100698.06;5092987;28;20933;-72
2021/08/05 01:49:10;;;;;;;1.23;0.80;;;;;;;15.05;95.16;100696.97;5093248;28;20449;-72
2021/08/05 01:51:37;;;;;;;1.50;1.23;;;;;;;15.02;95.74;100698.44;5093212;28;20448;-72
2021/08/05 01:54:05;;;;;;;1.40;0.73;;;;;;;15.03;95.14;100700.03;5093102;28;20487;-71
2021/08/05 01:56:32;;;;;;;1.73;1.27;;;;;;;14.99;95.47;100706.47;5093201;28;20447;-72
2021/08/05 01:58:59;;;;;;;1.13;1.00;;;;;;;14.93;96.00;100703.13;5093157;28;20440;-72
2021/08/05 02:01:28;;;;;;;1.50;1.23;;;;;;;15.01;95.77;100706.94;5093160;28;20440;-72
2021/08/05 02:04:05;;;;;;;1.07;0.90;;;;;;;15.08;95.10;100699.03;5093088;28;20471;-71
2021/08/05 02:06:36;;;;;;;1.00;0.77;;;;;;;15.05;95.18;100697.78;5093170;28;20436;-72
2021/08/05 02:09:07;;;;;;;1.63;0.73;;;;;;;15.02;95.72;100698.44;5093088;28;20443;-72
2021/08/05 02:11:37;;;;;;;2.20;1.03;;;;;;;14.96;95.90;100694.28;5093065;28;20432;-71
2021/08/05 02:14:06;;;;;;;0.80;0.80;;;;;;;15.04;95.51;100687.97;5092819;28;20471;-71
2021/08/05 02:16:41;;;;;;;1.40;1.30;;;;;;;14.95;95.67;100689.94;5093057;28;20464;-71
2021/08/05 02:19:08;;;;;;;2.10;1.33;;;;;;;15.00;95.15;100694.41;5093077;28;20424;-72
2021/08/05 02:21:35;;;;;;;1.10;0.83;;;;;;;14.96;95.87;100693.47;5093014;28;20464;-72
2021/08/05 02:24:02;;;;;;;1.30;0.77;;;;;;;14.94;96.24;100696.53;5092464;28;21012;-71
2021/08/05 02:26:29;;;;;;;2.90;1.30;;;;;;;14.83;94.72;100696.13;5094205;28;20789;-71
2021/08/05 02:28:56;;;;;;;0.80;0.80;;;;;;;14.80;92.59;100690.50;5092903;28;20445;-71
2021/08/05 02:31:23;;;;;;;1.30;1.00;;;;;;;14.77;91.34;100688.41;5092871;28;20473;-71
2021/08/05 02:33:52;;;;;;;2.20;1.23;;;;;;;14.63;92.22;100683.19;5092792;28;20459;-71
2021/08/05 02:36:19;;;;;;;1.70;1.30;;;;;;;14.48;93.25;100680.97;5092705;28;20491;-71
2021/08/05 02:38:46;;;;;;;1.17;1.07;;;;;;;14.50;93.88;100692.34;5092787;28;20436;-71
2021/08/05 02:41:14;;;;;;;1.93;1.80;;;;;;;14.50;95.59;100692.34;5092803;28;20437;-71
2021/08/05 02:43:41;;;;;;;2.17;1.10;;;;;;;14.52;96.35;100699.09;5092431;28;20456;-71
2021/08/05 02:46:08;;;;;;;2.70;1.27;;;;;;;14.49;96.92;100686.13;5092774;28;20525;-72
2021/08/05 02:48:36;;;;;;;1.70;1.00;;;;;;;14.53;96.32;100686.28;5092724;28;20436;-71
2021/08/05 02:51:05;;;;;;;1.07;0.97;;;;;;;14.43;96.79;100681.91;5092695;28;20440;-71
2021/08/05 02:53:32;;;;;;;1.10;0.70;;;;;;;14.47;96.79;100680.13;5092618;28;20460;-71
2021/08/05 02:56:00;;;;;;;0.90;0.73;;;;;;;14.44;96.82;100688.19;5096065;28;20523;-71
2021/08/05 02:58:26;;;;;;;1.13;0.83;;;;;;;14.39;96.94;100691.88;5095981;28;20475;-71
2021/08/05 03:00:53;;;;;;;1.13;1.00;;;;;;;14.37;96.82;100694.91;5095981;28;20825;-71
2021/08/05 03:03:22;;;;;;;1.10;1.00;;;;;;;14.31;97.10;100693.50;5095782;28;20447;-71
2021/08/05 03:05:50;;;;;;;1.07;0.90;;;;;;;14.31;97.23;100689.97;5096137;28;20472;-72
2021/08/05 03:08:18;;;;;;;2.10;1.10;;;;;;;14.25;97.27;100685.78;5096083;28;20444;-71
2021/08/05 03:10:44;;;;;;;1.17;0.83;;;;;;;14.14;98.18;100683.41;5096033;28;20440;-71
2021/08/05 03:13:10;;;;;;;1.90;0.80;;;;;;;14.28;97.93;100680.50;5095915;28;20436;-71
2021/08/05 03:15:37;;;;;;;1.63;0.90;;;;;;;14.23;98.41;100677.97;5095536;28;21019;-71
2021/08/05 03:18:05;;;;;;;0.80;0.63;;;;;;;14.23;99.05;100675.22;5095926;28;20444;-71
2021/08/05 03:20:31;;;;;;;1.00;0.87;;;;;;;14.27;98.47;100668.00;5095926;28;20458;-71
2021/08/05 03:22:59;;;;;;;1.10;0.93;;;;;;;14.43;97.88;100664.75;5095786;28;20441;-71
2021/08/05 03:25:27;;;;;;;0.87;0.80;;;;;;;14.36;98.55;100676.97;5095402;28;20907;-72
2021/08/05 03:27:54;;;;;;;1.50;1.03;;;;;;;14.43;98.05;100667.47;5095413;28;20854;-72
2021/08/05 03:30:21;;;;;;;1.90;1.40;;;;;;;14.37;97.63;100672.31;5102315;28;20444;-72
2021/08/05 03:32:47;;;;;;;2.90;1.00;;;;;;;14.37;96.15;100670.38;5095652;28;20436;-72
2021/08/05 03:35:14;;;;;;;2.20;1.30;;;;;;;14.39;93.69;100676.34;5095427;28;20495;-72
2021/08/05 03:37:40;;;;;;;1.10;0.90;;;;;;;14.39;93.28;100670.88;5095508;28;20444;-73
2021/08/05 03:40:07;;;;;;;3.10;0.93;;;;;;;14.34;93.51;100662.88;5095124;28;20953;-72
2021/08/05 03:42:35;;;;;;;1.67;1.07;;;;;;;14.35;94.90;100666.41;5095441;28;20455;-72
2021/08/05 03:45:02;;;;;;;1.07;0.73;;;;;;;14.38;96.03;100668.47;5094994;28;20891;-72
2021/08/05 03:47:28;;;;;;;1.43;1.00;;;;;;;14.44;96.90;100667.19;5095362;28;20441;-72
2021/08/05 03:49:55;;;;;;;0.93;0.70;;;;;;;14.51;97.62;100663.97;5095278;28;20448;-72
2021/08/05 03:52:21;;;;;;;1.37;1.00;;;;;;;14.53;97.85;100672.63;5095249;28;20444;-72
2021/08/05 03:54:48;;;;;;;1.93;1.30;;;;;;;14.61;97.55;100666.38;5094988;28;20495;-72
2021/08/05 03:57:14;;;;;;;1.37;1.27;;;;;;;14.63;98.02;100669.56;5094838;28;20820;-72
2021/08/05 03:59:42;;;;;;;1.90;0.97;;;;;;;14.70;97.98;100658.94;5095063;28;20436;-72
2021/08/05 04:02:08;;;;;;;1.37;0.83;;;;;;;14.75;97.31;100661.50;5095017;28;20440;-72
2021/08/05 04:04:35;;;;;;;2.10;1.23;;;;;;;14.85;96.92;100665.78;5094962;28;20464;-71
2021/08/05 04:07:01;;;;;;;2.23;1.20;;;;;;;14.84;97.11;100667.72;5093979;28;20444;-72
2021/08/05 04:09:28;;;;;;;0.93;0.80;;;;;;;14.86;97.10;100665.44;5094875;28;20445;-72
2021/08/05 04:11:54;;;;;;;1.70;1.00;;;;;;;14.93;97.24;100675.06;5094842;28;20441;-71
2021/08/05 04:14:20;;;;;;;0.77;0.77;;;;;;;14.95;95.82;100672.78;5094449;28;20820;-72
2021/08/05 04:16:48;;;;;;;2.73;1.30;;;;;;;14.98;95.77;100667.47;5094597;28;20483;-71
2021/08/05 04:19:15;;;;;;;0.80;0.80;;;;;;;14.96;94.65;100672.44;5094745;28;20440;-71
2021/08/05 04:21:41;;;;;;;1.47;0.80;;;;;;;14.99;94.39;100671.81;5094637;28;20456;-71
2021/08/05 04:24:08;;;;;;;1.73;1.37;;;;;;;15.01;93.18;100674.22;5094306;28;20468;-71
2021/08/05 04:26:34;;;;;;;1.33;1.00;;;;;;;14.94;92.20;100663.00;5094269;28;20933;-71
2021/08/05 04:29:00;;;;;;;0.77;0.67;;;;;;;15.01;92.29;100663.31;5094220;28;20972;-71
2021/08/05 04:31:27;;;;;;;3.10;1.67;;;;;;;15.09;92.73;100659.72;5094470;28;20490;-71
2021/08/05 04:33:55;;;;;;;1.30;0.80;;;;;;;15.13;94.41;100661.44;5094034;28;20475;-72
2021/08/05 04:36:21;;;;;;;0.70;0.70;;;;;;;15.14;94.84;100651.34;5094352;28;20498;-71
2021/08/05 04:38:47;;;;;;;1.43;0.70;;;;;;;15.23;95.13;100660.28;5094334;28;20477;-71
2021/08/05 04:41:14;;;;;;;9.63;1.23;;;;;;;15.31;95.44;100664.06;5094313;28;20444;-71
2021/08/05 04:43:40;;;;;;;2.03;1.13;;;;;;;15.36;95.86;100661.97;5094314;28;20467;-71
2021/08/05 04:46:07;;;;;;;2.87;1.20;;;;;;;15.45;95.75;100656.47;5093980;28;20933;-71
2021/08/05 04:48:33;;;;;;;2.13;1.20;;;;;;;15.51;95.45;100666.03;5094287;28;20809;-71
2021/08/05 04:51:01;;;;;;;1.40;1.20;;;;;;;15.56;95.66;100652.19;5094178;28;20519;-71
2021/08/05 04:53:28;;;;;;;1.30;1.17;;;;;;;15.53;95.95;100652.84;5094004;28;20465;-71
2021/08/05 04:55:54;;;;;;;1.20;0.80;;;;;;;15.52;95.79;100650.47;5093939;28;20480;-71
2021/08/05 04:58:20;;;;;;;2.03;1.20;;;;;;;15.61;95.18;100649.25;5093996;28;20436;-72
2021/08/05 05:00:47;;;;;;;1.47;0.80;;;;;;;15.71;94.79;100655.47;5093948;28;20444;-71
2021/08/05 05:03:13;;;;;;;0.70;0.53;;;;;;;15.76;94.62;100653.34;5094006;28;20440;-71
2021/08/05 05:05:40;;;;;;;0.80;0.70;;;;;;;15.84;94.42;100644.28;5093907;28;20437;-71
2021/08/05 05:08:15;;;;;;;1.80;0.93;;;;;;;15.86;94.96;100644.75;5093812;28;20448;-72
2021/08/05 05:10:42;;;;;;;1.77;1.00;;;;;;;15.95;94.65;100635.69;5093413;28;20443;-71
2021/08/05 05:13:08;;;;;;;1.10;1.00;;;;;;;15.97;94.10;100642.38;5093691;28;20511;-71
2021/08/05 05:15:35;;;;;;;3.10;1.33;;;;;;;16.05;94.08;100646.19;5093605;28;20503;-71
2021/08/05 05:18:01;;;;;;;2.03;1.60;;;;;;;16.11;94.55;100644.81;5093445;28;20452;-71
2021/08/05 05:20:28;;;;;;;1.23;0.70;;;;;;;16.17;94.17;100648.16;5093680;28;20494;-71
2021/08/05 05:22:54;;;;;;;1.53;0.87;;;;;;;16.23;94.29;100647.59;5093522;28;20440;-72
2021/08/05 05:25:22;;;;;;;1.17;0.97;;;;;;;16.23;92.61;100650.34;5099766;28;20460;-72
2021/08/05 05:27:49;;;;;;;2.00;1.17;;;;;;;16.23;90.04;100644.88;5093563;28;20463;-72
2021/08/05 05:30:15;;;;;;;2.50;1.43;;;;;;;16.23;89.29;100646.81;5093484;28;20443;-72
2021/08/05 05:32:43;;;;;;;2.50;1.40;;;;;;;16.23;88.89;100642.13;5093116;28;20452;-73
2021/08/05 05:35:11;;;;;;;2.90;1.63;;;;;;;16.27;89.88;100637.59;5093064;28;20960;-73
2021/08/05 05:37:38;;;;;;;7.07;1.50;;;;;;;16.25;92.22;100641.81;5093383;28;20440;-73
2021/08/05 05:40:06;;;;;;;1.10;1.00;;;;;;;16.31;94.36;100648.66;5093385;28;20447;-73
2021/08/05 05:42:34;;;;;;;3.17;1.30;;;;;;;16.35;95.97;100633.97;5093350;28;20447;-71
2021/08/05 05:45:01;;;;;;;6.60;1.17;;;;;;;16.40;96.19;100636.47;5093298;28;20547;-70
2021/08/05 05:47:28;;;;;;;4.47;1.43;;;;;;;16.46;95.55;100639.00;5093316;28;20440;-71
2021/08/05 05:49:54;;;;;;;2.13;1.30;;;;;;;16.45;93.80;100640.94;5093325;28;20444;-70
2021/08/05 05:52:21;;;;;;;2.10;1.13;;;;;;;16.53;92.63;100634.56;5093332;28;20445;-70
2021/08/05 05:54:47;;;;;;;1.10;1.00;;;;;;;16.58;92.74;100636.28;5093141;28;20472;-70
2021/08/05 05:57:14;;;;;;;2.30;1.00;;;;;;;16.67;93.73;100636.97;5093164;28;20488;-71
2021/08/05 05:59:42;;;;;;;1.83;1.27;;;;;;;16.72;94.49;100636.78;5093139;28;20432;-70
2021/08/05 06:02:09;;;;;;;2.20;1.33;;;;;;;16.79;94.63;100644.44;5093295;28;20440;-73
2021/08/05 06:04:36;;;;;;;1.87;1.07;;;;;;;16.89;95.67;100642.03;5092890;28;20966;-73
2021/08/05 06:07:03;;;;;;;1.83;1.30;;;;;;;16.96;95.98;100635.22;5093168;28;20442;-74
2021/08/05 06:09:29;;;;;;;2.10;1.60;;;;;;;17.04;95.44;100631.53;5093126;28;20451;-72
2021/08/05 06:11:56;;;;;;;1.00;0.83;;;;;;;17.10;94.87;100630.16;5092859;28;20934;-73
2021/08/05 06:14:22;;;;;;;2.47;1.47;;;;;;;17.17;94.83;100622.16;5093074;28;20472;-73
2021/08/05 06:16:50;;;;;;;1.13;1.00;;;;;;;17.24;94.75;100629.81;5093105;28;20491;-71
2021/08/05 06:19:16;;;;;;;2.03;1.10;;;;;;;17.29;94.20;100630.34;5093020;28;20855;-72
2021/08/05 06:21:43;;;;;;;2.20;1.47;;;;;;;17.35;93.98;100634.47;5093282;28;20448;-71
2021/08/05 06:24:12;;;;;;;1.50;0.90;;;;;;;17.42;93.72;100630.34;5092747;28;20476;-71
2021/08/05 06:26:39;;;;;;;1.60;1.40;;;;;;;17.48;93.66;100634.41;5092671;28;20448;-73
2021/08/05 06:29:06;;;;;;;2.70;1.97;;;;;;;17.50;93.56;100629.41;5092730;28;20949;-72
2021/08/05 06:31:34;;;;;;;1.63;1.47;;;;;;;17.57;93.58;100635.88;5096826;28;20477;-73
2021/08/05 06:34:02;;;;;;;1.90;1.50;;;;;;;17.59;93.91;100627.31;5096643;28;20504;-73
2021/08/05 06:36:28;;;;;;;1.20;1.10;;;;;;;17.69;93.84;100632.31;5096598;28;20492;-73
2021/08/05 06:38:54;;;;;;;1.80;1.30;;;;;;;17.77;94.24;100641.56;5096647;28;20448;-72
2021/08/05 06:41:21;;;;;;;1.87;1.33;;;;;;;17.84;94.58;100645.31;5096551;28;20444;-72
2021/08/05 06:43:48;;;;;;;1.57;1.47;;;;;;;17.93;94.43;100645.16;5096241;28;21013;-72
2021/08/05 06:46:15;;;;;;;2.63;1.67;;;;;;;17.99;93.77;100638.28;5096262;28;20444;-73
2021/08/05 06:48:41;;;;;;;2.37;1.63;;;;;;;18.07;93.56;100642.00;5096561;28;20448;-72
2021/08/05 06:51:10;;;;;;;2.20;1.40;;;;;;;18.16;93.50;100642.66;5096081;28;20913;-72
2021/08/05 06:53:36;;;;;;;4.10;2.03;;;;;;;18.25;92.83;100646.03;5096084;28;20969;-72
2021/08/05 06:56:03;;;;;;;1.30;1.20;;;;;;;18.33;92.02;100634.09;5095872;28;21001;-73
2021/08/05 06:58:30;;;;;;;1.63;1.50;;;;;;;18.47;90.56;100641.09;5096014;28;20950;-73
2021/08/05 07:00:57;;;;;;;1.63;1.40;;;;;;;18.61;89.85;100638.72;5096216;28;20832;-73
2021/08/05 07:03:23;;;;;;;1.07;0.97;;;;;;;18.74;89.51;100633.97;5096132;28;20444;-73
2021/08/05 07:05:50;;;;;;;1.80;1.20;;;;;;;18.87;89.90;100636.25;5096121;28;20436;-73
2021/08/05 07:08:18;;;;;;;2.40;1.63;;;;;;;19.00;89.68;100638.91;5096187;28;20436;-73
2021/08/05 07:10:44;;;;;;;3.40;2.00;;;;;;;19.12;88.96;100639.59;5095313;28;20452;-73
2021/08/05 07:13:11;;;;;;;2.70;1.60;;;;;;;19.25;88.80;100636.72;5095866;28;20447;-73
2021/08/05 07:15:37;;;;;;;3.43;1.93;;;;;;;19.42;89.37;100636.31;5095770;28;20433;-73
2021/08/05 07:18:04;;;;;;;2.20;1.50;;;;;;;19.54;88.23;100635.38;5095857;28;20451;-73
2021/08/05 07:20:30;;;;;;;2.53;1.90;;;;;;;19.70;87.06;100635.34;5095862;28;20445;-73
2021/08/05 07:22:57;;;;;;;2.20;2.00;;;;;;;19.84;85.61;100643.91;5105979;28;20455;-72
2021/08/05 07:25:24;;;;;;;2.17;1.70;;;;;;;19.89;82.73;100636.13;5101728;28;20475;-73
2021/08/05 07:27:51;;;;;;;3.23;2.00;;;;;;;19.99;81.80;100633.97;5096720;28;20805;-73
2021/08/05 07:30:18;;;;;;;2.00;1.87;;;;;;;20.10;80.79;100637.72;5095680;28;20478;-73
2021/08/05 07:32:45;;;;;;;2.60;1.57;;;;;;;20.12;81.39;100630.69;5095244;28;20819;-73
2021/08/05 07:35:12;;;;;;;2.17;1.73;;;;;;;20.26;82.47;100629.34;5095308;28;20452;-73
2021/08/05 07:37:39;;;;;;;3.17;2.00;;;;;;;20.36;82.49;100637.81;5095475;28;20487;-73
2021/08/05 07:40:07;;;;;;;2.57;1.47;;;;;;;20.42;81.58;100630.03;5095420;28;20452;-73
2021/08/05 07:42:34;;;;;;;4.50;1.53;;;;;;;20.46;82.46;100632.88;5095347;28;20448;-72
2021/08/05 07:45:01;;;;;;;6.10;2.33;;;;;;;20.39;82.65;100628.81;5095299;28;20471;-73
2021/08/05 07:47:28;;;;;;;3.57;2.27;;;;;;;20.47;82.17;100626.19;5095337;28;20484;-73
2021/08/05 07:49:54;;;;;;;2.40;2.20;;;;;;;20.53;82.33;100633.78;5095196;28;20441;-72
2021/08/05 07:52:21;;;;;;;3.93;2.10;;;;;;;20.60;81.21;100628.41;5095246;28;20440;-72
2021/08/05 07:54:47;;;;;;;4.17;1.97;;;;;;;20.70;80.19;100612.44;5095182;28;20464;-73
2021/08/05 07:57:14;;;;;;;2.20;1.37;;;;;;;20.77;80.88;100629.09;5095061;28;20495;-73
2021/08/05 07:59:42;;;;;;;5.93;2.40;;;;;;;20.81;81.57;100624.44;5095092;28;20455;-73
2021/08/05 08:02:09;;;;;;;1.77;1.40;;;;;;;20.83;81.04;100625.63;5094776;28;21011;-73
2021/08/05 08:04:35;;;;;;;1.90;1.60;;;;;;;20.86;80.71;100629.63;5094955;28;20461;-73
2021/08/05 08:07:02;;;;;;;3.60;1.87;;;;;;;20.94;80.27;100625.00;5094929;28;20432;-73
2021/08/05 08:09:28;;;;;;;2.30;1.87;;;;;;;20.98;80.40;100626.63;5094935;28;20436;-73
2021/08/05 08:11:55;;;;;;;2.33;1.60;;;;;;;21.06;79.35;100622.03;5094863;28;20445;-73
2021/08/05 08:14:21;;;;;;;4.23;2.07;;;;;;;21.12;79.39;100626.06;5094716;28;20468;-73
2021/08/05 08:16:49;;;;;;;4.10;2.30;;;;;;;21.16;78.80;100627.72;5094294;28;20854;-73
2021/08/05 08:19:15;;;;;;;2.93;1.70;;;;;;;21.25;78.77;100629.38;5094682;28;20444;-73
2021/08/05 08:21:42;;;;;;;3.27;2.40;;;;;;;21.22;78.04;100630.94;5094701;28;20440;-73
2021/08/05 08:24:10;;;;;;;2.50;2.03;;;;;;;21.22;78.37;100622.66;5094275;28;20484;-73
2021/08/05 08:26:36;;;;;;;2.00;1.80;;;;;;;21.21;78.29;100629.34;5095935;28;20487;-73
2021/08/05 08:29:03;;;;;;;1.97;1.70;;;;;;;21.17;77.33;100628.50;5094508;28;20448;-73
2021/08/05 08:31:30;;;;;;;3.00;1.83;;;;;;;21.18;77.48;100624.56;5094568;28;20543;-73
2021/08/05 08:33:58;;;;;;;4.13;1.70;;;;;;;21.25;78.68;100619.19;5094404;28;20848;-70
2021/08/05 08:36:24;;;;;;;1.60;1.50;;;;;;;21.28;79.29;100615.66;5094042;28;20538;-71
2021/08/05 08:38:50;;;;;;;3.90;2.77;;;;;;;;;;5094382;28;20447;-73
2021/08/05 08:41:20;;;;;;;2.20;1.27;;;;;;;21.30;77.98;100618.84;5094356;28;20449;-73
2021/08/05 08:43:46;;;;;;;2.07;1.70;;;;;;;21.32;77.90;100613.00;5094203;28;20464;-74
2021/08/05 08:46:19;;;;;;;3.80;2.03;;;;;;;21.35;78.07;100610.28;5094178;28;20474;-73
2021/08/05 08:48:47;;;;;;;2.97;2.60;;;;;;;21.40;78.36;100606.41;5094301;28;20436;-73
2021/08/05 08:51:17;;;;;;;1.33;1.20;;;;;;;21.47;78.31;100605.69;5093851;28;20966;-73
2021/08/05 08:53:45;;;;;;;2.17;1.90;;;;;;;21.42;76.65;100596.56;5093654;28;20468;-73
2021/08/05 08:56:12;;;;;;;2.60;2.07;;;;;;;21.47;77.66;100594.66;5094028;28;20536;-73
2021/08/05 08:58:39;;;;;;;2.63;1.97;;;;;;;21.56;77.22;100597.94;5093719;28;20453;-72
2021/08/05 09:01:06;;;;;;;3.53;2.10;;;;;;;21.49;76.60;100590.38;5093255;28;20809;-73
2021/08/05 09:03:34;;;;;;;3.27;2.03;;;;;;;21.48;75.78;100593.53;5094223;28;20487;-73
2021/08/05 09:06:00;;;;;;;4.03;2.20;;;;;;;21.61;75.71;100592.91;5093874;28;20471;-73
2021/08/05 09:08:28;;;;;;;3.43;1.97;;;;;;;21.76;75.83;100599.34;5093893;28;20450;-73
2021/08/05 09:10:55;;;;;;;2.67;1.47;;;;;;;21.88;75.99;100585.31;5093498;28;20964;-73
2021/08/05 09:13:23;;;;;;;2.90;2.40;;;;;;;21.99;76.47;100595.66;5093444;28;20946;-73
2021/08/05 09:15:50;;;;;;;3.40;2.10;;;;;;;22.11;75.56;100596.19;5093431;28;20459;-73
2021/08/05 09:18:29;;;;;;;3.33;2.50;;;;;;;22.19;75.02;100583.28;5093668;28;20484;-72
2021/08/05 09:21:10;;;;;;;3.60;2.00;;;;;;;22.22;74.37;100582.50;5100560;28;20416;-73
2021/08/05 09:24:04;;;;;;;2.40;2.10;;;;;;;22.32;75.14;100581.03;5097736;28;20468;-73
2021/08/05 09:26:35;;;;;;;2.30;2.07;;;;;;;22.39;74.39;100581.88;5074847;28;20449;-73
2021/08/05 09:29:09;;;;;;;3.43;1.87;;;;;;;22.53;72.98;100575.66;5093599;28;20471;-73
2021/08/05 09:31:38;;;;;;;2.43;1.80;;;;;;;22.65;72.79;100574.59;5093599;28;20519;-73
2021/08/05 09:34:06;;;;;;;2.30;1.47;;;;;;;22.76;72.33;100571.91;5093106;28;20529;-73
2021/08/05 09:36:33;;;;;;;3.40;2.00;;;;;;;22.86;72.71;100568.44;5093101;28;20487;-73
2021/08/05 09:39:02;;;;;;;2.10;1.60;;;;;;;22.97;69.12;100571.28;5093448;28;20444;-73
2021/08/05 09:41:28;;;;;;;1.40;1.30;;;;;;;23.13;68.82;100574.53;5093531;28;20532;-73
2021/08/05 09:44:02;;;;;;;2.87;1.63;;;;;;;23.21;66.38;100573.41;5093275;28;20467;-73
2021/08/05 09:46:30;;;;;;;2.80;1.73;;;;;;;23.35;65.99;100576.22;5092999;28;20798;-73
2021/08/05 09:48:57;;;;;;;3.73;1.73;;;;;;;23.35;64.50;100573.44;5093342;28;20440;-73
2021/08/05 09:51:23;;;;;;;1.70;1.50;;;;;;;23.41;64.01;100568.34;5093336;28;20425;-73
2021/08/05 09:53:58;;;;;;;2.60;1.60;;;;;;;23.62;65.19;100567.63;5093221;28;20472;-71
2021/08/05 09:56:27;;;;;;;1.53;1.40;;;;;;;23.83;64.65;100567.72;5093144;28;20446;-70
2021/08/05 09:59:04;;;;;;;1.70;1.60;;;;;;;23.85;64.26;100565.34;5093475;28;20444;-70
2021/08/05 10:01:31;;;;;;;1.63;1.43;;;;;;;24.06;62.74;100569.34;5093157;28;20478;-72
2021/08/05 10:03:57;;;;;;;3.00;1.83;;;;;;;24.23;61.22;100551.97;5093329;28;20483;-73
2021/08/05 10:06:24;;;;;;;3.30;1.43;;;;;;;24.41;61.77;100552.00;5097161;28;20444;-73
2021/08/05 10:08:50;;;;;;;2.93;1.90;;;;;;;24.54;62.06;100555.16;5097207;28;20447;-73
2021/08/05 10:11:17;;;;;;;2.17;1.70;;;;;;;24.70;59.82;100554.72;5097352;28;20462;-73
2021/08/05 10:13:44;;;;;;;1.87;1.67;;;;;;;24.77;60.06;100555.50;5097200;28;20472;-73
2021/08/05 10:16:12;;;;;;;2.40;1.80;;;;;;;24.71;60.86;100556.31;5097161;28;20448;-73
2021/08/05 10:18:39;;;;;;;1.40;1.20;;;;;;;24.83;60.19;100545.59;5097073;28;20490;-73
2021/08/05 10:21:08;;;;;;;2.10;1.90;;;;;;;24.87;59.03;100551.91;5097078;28;20447;-73
2021/08/05 10:23:37;;;;;;;2.07;1.87;;;;;;;24.86;58.46;100542.03;5097613;28;20476;-72
2021/08/05 10:26:06;;;;;;;2.00;1.80;;;;;;;24.96;58.63;100539.63;5097367;28;20963;-72
2021/08/05 10:28:34;;;;;;;1.90;1.70;;;;;;;25.02;58.75;100530.50;5097056;28;20437;-71
2021/08/05 10:31:07;;;;;;;1.90;1.70;;;;;;;25.15;59.31;100537.22;5096835;28;20444;-72
2021/08/05 10:33:34;;;;;;;1.93;1.40;;;;;;;25.22;57.12;100539.16;5096440;28;20555;-72
2021/08/05 10:36:01;;;;;;;1.40;1.30;;;;;;;25.30;55.29;100543.50;5096769;28;20436;-72
2021/08/05 10:38:29;;;;;;;2.20;2.00;;;;;;;25.37;54.73;100537.94;5096650;28;20480;-72
2021/08/05 10:40:55;;;;;;;2.33;1.90;;;;;;;25.42;55.89;100539.50;5096701;28;20459;-72
2021/08/05 10:43:22;;;;;;;1.83;1.27;;;;;;;25.46;56.68;100531.94;5096594;28;20505;-72
2021/08/05 10:45:48;;;;;;;1.50;1.40;;;;;;;25.37;54.07;100523.28;5096574;28;20823;-72
2021/08/05 10:48:16;;;;;;;5.20;1.80;;;;;;;25.45;54.35;100524.00;5096555;28;20436;-72
2021/08/05 10:50:45;;;;;;;2.20;1.63;;;;;;;25.65;54.65;100523.09;5096123;28;20456;-72
2021/08/05 10:53:43;;;;;;;1.80;1.50;;;;;;;25.80;53.61;100523.03;5096385;28;20519;-72
2021/08/05 10:56:24;;;;;;;1.47;1.30;;;;;;;25.83;53.64;100519.47;5096379;28;20444;-72
2021/08/05 10:59:08;;;;;;;1.37;1.27;;;;;;;25.95;54.56;100518.97;5096475;28;20468;-72
2021/08/05 11:01:46;;;;;;;1.63;1.53;;;;;;;26.11;53.31;100515.69;5094435;28;20456;-71
2021/08/05 11:04:46;;;;;;;1.33;1.20;;;;;;;26.27;52.96;100506.81;5096245;28;20460;-76
2021/08/05 11:07:23;;;;;;;2.83;1.33;;;;;;;26.33;51.74;100505.16;5096367;28;20801;-74
2021/08/05 11:10:01;;;;;;;1.90;1.30;;;;;;;26.31;52.05;100507.59;5095927;28;20797;-74
2021/08/05 11:12:44;;;;;;;1.97;1.00;;;;;;;26.29;52.79;100504.41;5096317;28;20428;-74
2021/08/05 11:15:45;;;;;;;2.70;1.80;;;;;;;26.32;51.89;100507.16;5095445;28;20841;-74
2021/08/05 11:18:22;;;;;;;1.60;1.30;;;;;;;26.47;52.36;100505.06;5096013;28;20484;-74
2021/08/05 11:21:30;;;;;;;1.77;1.20;;;;;;;26.67;50.87;100497.72;5096588;28;20424;-73
2021/08/05 11:23:56;;;;;;;1.70;1.60;;;;;;;27.01;51.09;100498.94;5068417;28;20476;-74
2021/08/05 11:26:24;;;;;;;1.90;1.70;;;;;;;27.20;50.42;100495.53;5097841;28;20523;-74
2021/08/05 11:28:54;;;;;;;2.73;1.80;;;;;;;26.76;50.06;100480.56;5095951;28;20539;-74
2021/08/05 11:31:32;;;;;;;1.80;1.63;;;;;;;26.70;53.05;100479.44;5096415;28;20445;-75